EBBZ weather

Buzet ULM
Pont-A-Celles, Hainaut, Belgium

Public forecast

Using degrees Celsius for public forecast. Weather courtesy of forecast.io.

METAR (pilot weather report)

Closest report is Brussels South Charleroi Airport, 5.7 nm (10.5 km) SSE. Retrieved 2019/04/21 22:20 UTC (25 minutes ago):

EBCI 212220Z 08005KT CAVOK 15/04 Q1014 NOSIG

TAF (pilot weather forecast)

Closest forecast is Brussels South Charleroi Airport, 5.7 nm (10.5 km) SSE. Retrieved 2019/04/21 18:27 UTC (4 hours ago):

TAF EBCI 211704Z 2118/2224 10006KT CAVOK